Time;durP1;ratioP1;P1;durP2;ratioP2;P2;SDS_P1;SDS_P2;PMS_P1;PMS_P2;Temp;Humidity;BMP_temperature;BMP_pressure;BME280_temperature;BME280_humidity;BME280_pressure;Samples;Min_cycle;Max_cycle;Signal;HPM_P1;HPM_P2
2021/12/24 00:00:30;;;;;;;70.53;39.53;;;5.70;99.90;;;;;;4943899;28;89835;-46
2021/12/24 00:02:56;;;;;;;68.25;36.45;;;5.70;99.90;;;;;;4943771;28;90370;-34
2021/12/24 00:05:22;;;;;;;62.42;38.05;;;5.70;99.90;;;;;;4942883;28;89609;-38
2021/12/24 00:07:48;;;;;;;63.72;37.13;;;5.70;99.90;;;;;;4943681;28;87838;-37
2021/12/24 00:10:14;;;;;;;74.15;41.10;;;5.80;99.90;;;;;;4943666;28;90045;-42
2021/12/24 00:12:45;;;;;;;64.35;36.47;;;5.90;99.90;;;;;;4944105;28;88842;-45
2021/12/24 00:15:37;;;;;;;63.92;38.67;;;5.90;99.90;;;;;;4943145;28;89065;-35
2021/12/24 00:18:11;;;;;;;72.13;39.85;;;6.00;99.90;;;;;;4942778;28;89891;-43
2021/12/24 00:21:41;;;;;;;68.85;40.10;;;6.00;99.90;;;;;;4942957;28;90094;-38
2021/12/24 00:37:12;;;;;;;65.85;37.95;;;6.10;99.90;;;;;;4943329;28;89859;-38
2021/12/24 00:39:46;;;;;;;61.25;34.88;;;6.10;99.90;;;;;;4942036;28;90460;-40
2021/12/24 00:42:13;;;;;;;51.20;33.35;;;6.10;99.90;;;;;;4943595;28;88262;-37
2021/12/24 00:44:38;;;;;;;52.33;33.22;;;6.20;99.90;;;;;;4942645;28;89654;-34
2021/12/24 00:47:04;;;;;;;60.92;35.45;;;6.20;99.90;;;;;;4943436;28;90211;-44
2021/12/24 00:49:30;;;;;;;62.67;33.85;;;6.20;99.90;;;;;;4942400;28;89671;-43
2021/12/24 00:52:07;;;;;;;58.70;32.75;;;6.20;99.90;;;;;;4942660;28;87868;-40
2021/12/24 00:57:19;;;;;;;45.92;29.15;;;6.20;99.90;;;;;;4944550;28;89982;-37
2021/12/24 00:59:45;;;;;;;46.40;28.02;;;6.30;99.90;;;;;;4945898;28;87589;-35
2021/12/24 01:02:10;;;;;;;48.17;30.33;;;6.30;99.90;;;;;;4945967;28;88885;-37
2021/12/24 01:04:36;;;;;;;45.90;28.23;;;6.30;99.90;;;;;;4944826;28;90116;-39
2021/12/24 01:07:02;;;;;;;45.35;28.17;;;6.30;99.90;;;;;;4942800;28;89645;-38
2021/12/24 01:09:27;;;;;;;44.70;28.73;;;6.30;99.90;;;;;;4942503;28;89853;-38
2021/12/24 01:11:53;;;;;;;42.33;26.27;;;6.40;99.90;;;;;;4942558;28;89292;-43
2021/12/24 01:14:21;;;;;;;38.75;27.10;;;6.30;99.90;;;;;;4942780;28;89360;-36
2021/12/24 01:17:05;;;;;;;37.53;23.57;;;6.30;99.90;;;;;;4942193;28;90694;-36
2021/12/24 01:19:31;;;;;;;39.72;25.30;;;6.40;99.90;;;;;;4942028;28;87574;-42
2021/12/24 01:24:35;;;;;;;32.50;22.70;;;6.40;99.90;;;;;;4921156;28;89845;-36
2021/12/24 01:27:21;;;;;;;34.03;23.58;;;6.40;99.90;;;;;;4923162;28;89438;-39
2021/12/24 01:30:02;;;;;;;30.10;21.02;;;6.40;99.90;;;;;;4922866;28;90236;-46
2021/12/24 01:38:08;;;;;;;24.45;20.02;;;6.50;99.90;;;;;;4922852;28;89770;-42
2021/12/24 01:43:05;;;;;;;24.90;17.50;;;6.50;99.90;;;;;;4922464;28;88435;-43
2021/12/24 01:45:34;;;;;;;27.63;19.25;;;6.50;99.90;;;;;;4922537;28;90368;-40
2021/12/24 01:48:05;;;;;;;23.35;18.00;;;6.60;99.90;;;;;;4923227;28;88629;-43
2021/12/24 01:50:37;;;;;;;21.17;17.58;;;6.60;99.90;;;;;;4923316;28;89038;-39
2021/12/24 01:53:05;;;;;;;24.52;17.85;;;6.60;99.90;;;;;;4922484;28;87558;-39
2021/12/24 01:55:31;;;;;;;28.40;18.85;;;6.60;99.90;;;;;;4922140;28;90261;-38
2021/12/24 01:57:57;;;;;;;22.40;16.67;;;6.70;99.90;;;;;;4922870;28;89924;-36
2021/12/24 02:00:26;;;;;;;19.17;15.52;;;6.70;99.90;;;;;;4922472;28;89040;-34
2021/12/24 02:02:53;;;;;;;22.33;17.83;;;6.70;99.90;;;;;;4922314;28;89093;-36
2021/12/24 02:05:18;;;;;;;16.98;14.70;;;6.70;99.90;;;;;;4921979;28;90198;-39
2021/12/24 02:07:45;;;;;;;19.83;15.55;;;6.70;99.90;;;;;;4922637;28;89595;-36
2021/12/24 02:10:13;;;;;;;17.75;15.85;;;6.70;99.90;;;;;;4921797;28;89536;-41
2021/12/24 02:12:39;;;;;;;20.27;15.50;;;6.80;99.90;;;;;;4922282;28;89617;-46
2021/12/24 02:15:11;;;;;;;20.67;15.68;;;6.80;99.90;;;;;;4922543;28;92190;-38
2021/12/24 02:17:56;;;;;;;15.73;13.95;;;6.90;99.90;;;;;;4921802;28;89565;-38
2021/12/24 02:28:54;;;;;;;18.20;14.75;;;6.80;99.90;;;;;;4921927;28;89594;-42
2021/12/24 02:31:23;;;;;;;19.92;15.63;;;6.90;99.90;;;;;;4922395;28;89648;-34
2021/12/24 02:33:50;;;;;;;19.10;15.35;;;6.90;99.90;;;;;;4922100;28;89425;-43
2021/12/24 02:36:16;;;;;;;16.85;15.07;;;6.90;99.90;;;;;;4921799;28;89342;-38
2021/12/24 02:38:43;;;;;;;16.33;14.65;;;6.90;99.90;;;;;;4921465;28;89604;-39
2021/12/24 02:41:10;;;;;;;23.88;15.80;;;6.90;99.90;;;;;;4921841;28;90562;-35
2021/12/24 02:43:37;;;;;;;17.65;13.63;;;6.90;99.90;;;;;;4921855;28;87472;-33
2021/12/24 02:46:10;;;;;;;17.10;14.45;;;6.90;99.90;;;;;;4921801;28;91383;-39
2021/12/24 02:53:59;;;;;;;16.33;13.15;;;7.00;99.90;;;;;;4921265;28;88652;-40
2021/12/24 02:56:31;;;;;;;13.02;11.52;;;7.10;99.90;;;;;;4921647;28;90318;-37
2021/12/24 02:58:59;;;;;;;13.55;12.20;;;7.10;99.90;;;;;;4921522;28;89602;-38
2021/12/24 03:01:27;;;;;;;;;;;7.10;99.90;;;;;;4922689;28;88136;-45
2021/12/24 03:03:52;;;;;;;11.52;10.32;;;7.10;99.90;;;;;;4924445;28;88674;-39
2021/12/24 03:06:27;;;;;;;15.00;12.02;;;7.20;99.90;;;;;;4920427;28;91100;-33
2021/12/24 03:08:53;;;;;;;13.07;11.82;;;7.20;99.90;;;;;;4921720;28;89184;-41
2021/12/24 03:11:20;;;;;;;14.50;11.55;;;7.20;99.90;;;;;;4921253;28;89544;-38
2021/12/24 03:13:46;;;;;;;12.73;10.25;;;7.20;99.90;;;;;;4921647;28;88488;-43
2021/12/24 03:16:12;;;;;;;12.00;10.73;;;7.30;99.90;;;;;;4921691;28;90340;-36
2021/12/24 03:18:40;;;;;;;12.15;9.85;;;7.30;99.90;;;;;;4920957;28;90920;-38
2021/12/24 03:21:13;;;;;;;11.90;9.33;;;7.40;99.90;;;;;;4922108;28;90029;-41
2021/12/24 03:23:42;;;;;;;11.55;10.43;;;7.40;99.90;;;;;;4923994;28;89487;-38
2021/12/24 03:26:11;;;;;;;12.27;8.95;;;7.40;99.90;;;;;;4925231;28;89232;-40
2021/12/24 03:28:38;;;;;;;14.32;9.93;;;7.40;99.90;;;;;;4925486;28;89966;-41
2021/12/24 03:31:05;;;;;;;11.45;10.27;;;7.40;99.90;;;;;;4925474;28;89138;-42
2021/12/24 03:33:31;;;;;;;13.13;10.43;;;7.50;99.90;;;;;;4924977;28;88613;-40
2021/12/24 03:35:56;;;;;;;12.25;9.98;;;7.50;99.90;;;;;;4924722;28;90222;-32
2021/12/24 03:38:22;;;;;;;12.60;10.65;;;7.60;99.90;;;;;;4924705;28;90013;-41
2021/12/24 03:40:48;;;;;;;13.98;10.00;;;7.60;99.90;;;;;;4923286;28;88905;-34
2021/12/24 03:43:14;;;;;;;14.07;11.25;;;7.60;99.90;;;;;;4924224;28;89239;-45
2021/12/24 03:45:55;;;;;;;13.55;11.73;;;7.70;99.90;;;;;;4924480;28;90390;-39
2021/12/24 03:48:49;;;;;;;12.80;11.45;;;7.70;99.90;;;;;;4924361;28;88996;-38
2021/12/24 03:51:59;;;;;;;16.02;11.77;;;7.70;99.90;;;;;;4924960;28;89725;-41
2021/12/24 03:56:39;;;;;;;18.40;12.65;;;7.80;99.90;;;;;;4923869;28;90311;-40
2021/12/24 03:59:06;;;;;;;20.45;13.35;;;7.80;99.90;;;;;;4924303;28;89441;-44
2021/12/24 04:01:33;;;;;;;18.58;12.25;;;7.90;99.90;;;;;;4924186;28;88618;-39
2021/12/24 04:03:59;;;;;;;17.63;14.13;;;7.90;99.90;;;;;;4924084;28;90024;-39
2021/12/24 04:06:24;;;;;;;17.70;13.00;;;7.90;99.90;;;;;;4923669;28;90326;-42
2021/12/24 04:08:50;;;;;;;22.08;14.27;;;8.00;99.90;;;;;;4924009;28;89663;-35
2021/12/24 04:11:16;;;;;;;21.50;12.60;;;8.00;99.90;;;;;;4923764;28;88890;-36
2021/12/24 04:13:42;;;;;;;16.67;11.70;;;8.00;99.90;;;;;;4924970;28;87465;-38
2021/12/24 04:16:08;;;;;;;16.00;12.82;;;8.00;99.90;;;;;;4924203;28;90212;-40
2021/12/24 04:18:42;;;;;;;19.17;12.57;;;8.00;99.90;;;;;;4923765;28;90269;-40
2021/12/24 04:26:37;;;;;;;20.00;14.73;;;8.10;99.90;;;;;;4924027;28;90672;-37
2021/12/24 04:29:04;;;;;;;20.88;13.70;;;8.10;99.90;;;;;;4923605;28;89090;-41
2021/12/24 04:31:43;;;;;;;22.60;13.15;;;8.10;99.90;;;;;;4923726;28;88554;-45
2021/12/24 04:34:10;;;;;;;18.70;13.27;;;8.20;99.90;;;;;;4923460;28;88413;-43
2021/12/24 04:36:55;;;;;;;19.85;14.93;;;8.20;99.90;;;;;;4923573;28;90151;-42
2021/12/24 04:39:44;;;;;;;17.48;12.95;;;8.20;99.90;;;;;;4923283;28;89486;-37
2021/12/24 05:01:21;;;;;;;31.60;21.15;;;8.30;99.90;;;;;;4923273;28;90357;-35
2021/12/24 05:03:47;;;;;;;30.20;20.85;;;8.30;99.90;;;;;;4922870;28;90000;-38
2021/12/24 05:11:13;;;;;;;;;;;8.40;99.90;;;;;;4923699;28;89386;-39
2021/12/24 05:13:39;;;;;;;32.78;22.90;;;8.30;99.90;;;;;;4925596;28;87663;-38
2021/12/24 05:16:38;;;;;;;41.78;23.75;;;8.30;99.90;;;;;;4937915;28;89128;-40
2021/12/24 05:21:42;;;;;;;28.70;21.17;;;8.30;99.90;;;;;;4922621;28;90081;-41
2021/12/24 05:24:16;;;;;;;27.02;19.35;;;8.30;99.90;;;;;;4923909;28;89997;-35
2021/12/24 05:26:55;;;;;;;34.85;22.52;;;8.40;99.90;;;;;;4922759;28;90001;-34
2021/12/24 05:29:20;;;;;;;;;;;8.40;99.90;;;;;;4923004;28;90230;-41
2021/12/24 05:31:47;;;;;;;30.23;21.77;;;8.40;99.90;;;;;;4925440;28;90049;-42
2021/12/24 05:34:15;;;;;;;31.73;21.30;;;8.40;99.90;;;;;;4922639;28;90001;-38
2021/12/24 05:36:41;;;;;;;36.28;23.13;;;8.50;99.90;;;;;;4923059;28;90317;-42
2021/12/24 05:39:06;;;;;;;34.85;23.05;;;8.50;99.90;;;;;;4923535;28;90371;-36
2021/12/24 05:41:32;;;;;;;34.58;21.27;;;8.50;99.90;;;;;;4921876;28;89619;-34
2021/12/24 05:43:59;;;;;;;33.10;22.10;;;8.50;99.90;;;;;;4923449;28;87560;-35
2021/12/24 05:46:26;;;;;;;34.88;22.73;;;8.50;99.90;;;;;;4921960;28;87683;-43
2021/12/24 05:48:52;;;;;;;31.90;21.63;;;8.50;99.90;;;;;;4922645;28;89124;-41
2021/12/24 05:51:17;;;;;;;39.03;22.25;;;8.40;99.90;;;;;;4922217;28;90235;-37
2021/12/24 05:53:43;;;;;;;32.75;19.95;;;8.40;99.90;;;;;;4923165;28;89116;-38
2021/12/24 05:56:09;;;;;;;33.13;21.73;;;8.50;99.90;;;;;;4922371;28;87447;-43
2021/12/24 05:58:34;;;;;;;32.38;22.45;;;8.40;99.90;;;;;;4922740;28;90349;-41
2021/12/24 06:01:00;;;;;;;41.78;22.58;;;8.40;99.90;;;;;;4922023;28;89627;-40
2021/12/24 06:03:25;;;;;;;35.35;22.95;;;8.50;99.90;;;;;;4922961;28;88008;-37
2021/12/24 06:05:51;;;;;;;29.10;21.05;;;8.50;99.90;;;;;;4922633;28;87881;-42
2021/12/24 06:08:16;;;;;;;35.97;21.98;;;8.50;99.90;;;;;;4921964;28;90295;-39
2021/12/24 06:10:43;;;;;;;33.60;23.30;;;8.40;99.90;;;;;;4922545;28;89913;-38
2021/12/24 06:13:09;;;;;;;38.80;21.58;;;8.40;99.90;;;;;;4922637;28;87512;-38
2021/12/24 06:15:42;;;;;;;34.70;22.92;;;8.40;99.90;;;;;;4922128;28;87994;-40
2021/12/24 06:18:26;;;;;;;41.58;23.23;;;8.40;99.90;;;;;;4922280;28;89618;-41
2021/12/24 06:20:54;;;;;;;44.33;24.60;;;8.40;99.90;;;;;;4922411;28;88662;-39
2021/12/24 06:23:21;;;;;;;38.28;24.02;;;8.40;99.90;;;;;;4922434;28;89612;-39
2021/12/24 06:25:48;;;;;;;36.35;22.20;;;8.40;99.90;;;;;;4928576;28;89500;-39
2021/12/24 06:28:15;;;;;;;30.92;21.15;;;8.50;99.90;;;;;;4921793;28;90313;-45
2021/12/24 06:30:41;;;;;;;42.50;22.65;;;8.50;99.90;;;;;;4921659;28;89545;-39
2021/12/24 06:33:08;;;;;;;31.83;20.67;;;8.50;99.90;;;;;;4921841;28;89177;-38
2021/12/24 06:35:33;;;;;;;40.55;22.38;;;8.50;99.90;;;;;;4922200;28;90103;-43
2021/12/24 06:37:59;;;;;;;31.58;21.75;;;8.50;99.90;;;;;;4922529;28;90794;-35
2021/12/24 06:40:26;;;;;;;31.63;20.10;;;8.40;99.90;;;;;;4941428;28;88625;-35
2021/12/24 06:42:51;;;;;;;29.60;18.67;;;8.40;99.90;;;;;;4980577;28;87618;-38
2021/12/24 06:45:22;;;;;;;40.47;19.92;;;8.50;99.90;;;;;;4980221;28;87596;-39
2021/12/24 06:47:48;;;;;;;29.77;18.50;;;8.50;99.90;;;;;;4980678;28;90587;-38
2021/12/24 06:50:14;;;;;;;36.30;18.00;;;8.50;99.90;;;;;;4978374;28;89318;-37
2021/12/24 06:52:40;;;;;;;32.95;17.55;;;8.50;99.90;;;;;;4961149;28;88502;-36
2021/12/24 06:55:06;;;;;;;25.80;16.85;;;8.40;99.90;;;;;;4961299;28;88762;-41
2021/12/24 06:57:31;;;;;;;29.73;17.95;;;8.40;99.90;;;;;;4962204;28;90515;-38
2021/12/24 06:59:57;;;;;;;33.08;16.00;;;8.40;99.90;;;;;;4965232;28;90267;-37
2021/12/24 07:02:22;;;;;;;21.83;15.50;;;8.40;99.90;;;;;;4963897;28;88093;-40
2021/12/24 07:04:48;;;;;;;26.90;16.00;;;8.50;99.90;;;;;;4964599;28;87589;-41
2021/12/24 07:07:14;;;;;;;32.70;17.35;;;8.40;99.90;;;;;;4963471;28;90036;-41
2021/12/24 07:09:42;;;;;;;35.35;15.80;;;8.50;99.90;;;;;;4964514;28;89642;-36
2021/12/24 07:12:12;;;;;;;;;;;8.40;99.90;;;;;;4964547;28;88223;-39
2021/12/24 07:14:39;;;;;;;39.78;15.20;;;8.50;99.90;;;;;;4966163;28;87725;-35
2021/12/24 07:17:06;;;;;;;30.77;16.35;;;8.40;99.90;;;;;;4963969;28;90172;-41
2021/12/24 07:19:31;;;;;;;28.38;14.88;;;8.40;99.90;;;;;;4962963;28;88674;-38
2021/12/24 07:21:57;;;;;;;19.58;13.70;;;8.40;99.90;;;;;;4962935;28;87724;-38
2021/12/24 07:24:23;;;;;;;35.75;15.48;;;8.40;99.90;;;;;;4962690;28;89894;-37
2021/12/24 07:26:48;;;;;;;24.77;16.00;;;8.40;99.90;;;;;;4964275;28;88839;-43
2021/12/24 07:29:14;;;;;;;30.42;15.57;;;8.40;99.90;;;;;;4963548;28;90033;-43
2021/12/24 07:31:40;;;;;;;24.85;12.98;;;8.40;99.90;;;;;;4963517;28;90015;-45
2021/12/24 07:34:05;;;;;;;28.85;14.35;;;8.30;99.90;;;;;;4964040;28;88909;-37
2021/12/24 07:36:31;;;;;;;27.40;13.70;;;8.30;99.90;;;;;;4962808;28;90253;-36
2021/12/24 07:38:57;;;;;;;26.55;14.77;;;8.30;99.90;;;;;;4964082;28;89592;-44
2021/12/24 07:41:24;;;;;;;22.80;12.52;;;8.30;99.90;;;;;;4963306;28;89685;-39
2021/12/24 07:43:50;;;;;;;25.50;12.93;;;8.30;99.90;;;;;;4963334;28;87619;-35
2021/12/24 07:46:16;;;;;;;21.13;13.88;;;8.30;99.90;;;;;;4963088;28;90212;-37
2021/12/24 07:48:48;;;;;;;30.75;13.60;;;8.30;99.90;;;;;;4963064;28;89651;-40
2021/12/24 07:54:00;;;;;;;24.10;11.50;;;8.30;99.90;;;;;;4962996;28;88692;-42
2021/12/24 07:56:30;;;;;;;26.65;11.98;;;8.40;99.90;;;;;;4962960;28;88814;-43
2021/12/24 07:58:56;;;;;;;18.45;12.45;;;8.40;99.90;;;;;;4963049;28;89575;-45
2021/12/24 08:01:23;;;;;;;14.23;9.82;;;8.50;99.90;;;;;;4963087;28;89793;-39
2021/12/24 08:03:55;;;;;;;27.58;12.90;;;8.40;99.90;;;;;;4963745;28;88581;-40
2021/12/24 08:06:23;;;;;;;21.23;11.27;;;8.40;99.90;;;;;;4963634;28;89656;-37
2021/12/24 08:08:49;;;;;;;18.27;11.73;;;8.30;99.90;;;;;;4962423;28;88812;-45
2021/12/24 08:11:15;;;;;;;28.08;11.98;;;8.30;99.90;;;;;;4962733;28;88159;-42
2021/12/24 08:13:41;;;;;;;23.05;12.05;;;8.30;99.90;;;;;;4963537;28;89524;-38
2021/12/24 08:16:08;;;;;;;18.88;10.82;;;8.30;99.90;;;;;;4962737;28;90041;-37
2021/12/24 08:18:33;;;;;;;16.88;10.95;;;8.30;99.90;;;;;;4962106;28;90001;-39
2021/12/24 08:20:59;;;;;;;22.80;10.23;;;8.30;99.90;;;;;;4963208;28;89733;-37
2021/12/24 08:23:24;;;;;;;23.08;10.63;;;8.30;99.90;;;;;;4962168;28;88543;-40
2021/12/24 08:25:55;;;;;;;23.23;10.90;;;8.30;99.90;;;;;;4962893;28;90210;-36
2021/12/24 08:28:21;;;;;;;20.30;9.00;;;8.20;99.90;;;;;;4963017;28;89810;-41
2021/12/24 08:30:46;;;;;;;21.58;9.85;;;8.30;99.90;;;;;;4963475;28;89169;-44
2021/12/24 08:33:15;;;;;;;17.67;8.60;;;8.30;99.90;;;;;;4963221;28;87485;-40
2021/12/24 08:35:40;;;;;;;15.70;9.32;;;8.30;99.90;;;;;;4963312;28;90501;-41
2021/12/24 08:38:06;;;;;;;23.00;8.77;;;8.30;99.90;;;;;;4962870;28;90043;-42
2021/12/24 08:40:31;;;;;;;23.33;10.13;;;8.30;99.90;;;;;;4963243;28;88929;-44
2021/12/24 08:42:57;;;;;;;23.00;10.70;;;8.30;99.90;;;;;;4968115;28;89488;-39
2021/12/24 08:45:23;;;;;;;28.65;10.15;;;8.20;99.90;;;;;;4966620;28;90328;-39
2021/12/24 08:47:48;;;;;;;15.00;8.15;;;8.20;99.90;;;;;;4968219;28;89564;-43
2021/12/24 08:50:14;;;;;;;17.30;8.40;;;8.30;99.90;;;;;;4965561;28;89338;-45
2021/12/24 08:52:43;;;;;;;29.38;9.77;;;8.20;99.90;;;;;;4961994;28;88659;-37
2021/12/24 08:55:09;;;;;;;18.60;9.18;;;8.20;99.90;;;;;;4969848;28;90272;-43
2021/12/24 08:57:35;;;;;;;16.63;7.80;;;8.20;99.90;;;;;;4980196;28;89746;-44
2021/12/24 09:00:01;;;;;;;27.10;9.02;;;8.20;99.90;;;;;;4981334;28;88452;-44
2021/12/24 09:02:27;;;;;;;21.90;7.93;;;8.20;99.90;;;;;;4975038;28;90019;-37
2021/12/24 09:04:52;;;;;;;24.58;9.75;;;8.20;99.90;;;;;;4971025;28;92342;-38
2021/12/24 09:07:18;;;;;;;23.48;9.82;;;8.30;99.90;;;;;;4972902;28;88517;-38
2021/12/24 09:09:43;;;;;;;21.30;8.68;;;8.30;99.90;;;;;;4971238;28;88050;-42
2021/12/24 09:12:09;;;;;;;24.55;8.75;;;8.30;99.90;;;;;;4970628;28;88581;-44
2021/12/24 09:14:35;;;;;;;21.17;9.57;;;8.40;99.90;;;;;;4977189;28;90120;-41
2021/12/24 09:17:02;;;;;;;22.42;10.45;;;8.40;99.90;;;;;;4968580;28;89672;-45
2021/12/24 09:19:28;;;;;;;22.85;9.75;;;8.30;99.90;;;;;;4972561;28;89830;-40
2021/12/24 09:21:56;;;;;;;17.25;8.75;;;8.30;99.90;;;;;;4967856;28;89091;-36
2021/12/24 09:24:24;;;;;;;18.92;8.63;;;8.30;99.90;;;;;;4979037;28;91320;-41
2021/12/24 09:26:54;;;;;;;12.52;8.02;;;8.30;99.90;;;;;;4979692;28;90071;-45
2021/12/24 09:29:19;;;;;;;25.70;10.40;;;8.30;99.90;;;;;;4978884;28;89587;-38
2021/12/24 09:31:45;;;;;;;22.67;9.68;;;8.30;99.90;;;;;;4980151;28;87465;-40
2021/12/24 09:34:11;;;;;;;24.95;10.65;;;8.30;99.90;;;;;;4971680;28;88648;-42
2021/12/24 09:36:38;;;;;;;17.20;8.30;;;8.30;99.90;;;;;;4940141;28;90131;-41
2021/12/24 09:39:05;;;;;;;29.13;10.35;;;8.30;99.90;;;;;;4941809;28;88690;-34
2021/12/24 09:41:31;;;;;;;19.75;8.55;;;8.30;99.90;;;;;;4938439;28;90358;-37
2021/12/24 09:44:00;;;;;;;18.58;9.07;;;8.40;99.90;;;;;;4958496;28;90572;-41
2021/12/24 09:46:28;;;;;;;20.65;9.13;;;8.40;99.90;;;;;;4960810;28;90030;-35
2021/12/24 09:48:55;;;;;;;24.38;8.98;;;8.40;99.90;;;;;;4961139;28;88926;-39
2021/12/24 09:51:26;;;;;;;18.42;8.65;;;8.40;99.90;;;;;;4959838;28;88548;-37
2021/12/24 09:53:52;;;;;;;19.50;7.78;;;8.40;99.90;;;;;;4960550;28;90536;-36
2021/12/24 09:56:20;;;;;;;26.73;9.52;;;8.40;99.90;;;;;;4959797;28;88671;-35
2021/12/24 09:58:45;;;;;;;12.00;7.82;;;8.40;99.90;;;;;;4960305;28;88514;-43
2021/12/24 10:01:28;;;;;;;14.25;7.82;;;8.50;99.90;;;;;;4943836;28;88864;-35
2021/12/24 10:04:03;;;;;;;17.95;9.00;;;8.50;99.90;;;;;;4960280;28;89884;-43
2021/12/24 10:06:29;;;;;;;30.42;9.57;;;8.50;99.90;;;;;;4960197;28;91108;-40
2021/12/24 10:09:08;;;;;;;31.38;12.48;;;8.50;99.90;;;;;;4960236;28;87947;-34
2021/12/24 10:12:05;;;;;;;20.00;10.27;;;8.50;99.90;;;;;;4958957;28;89099;-42
2021/12/24 10:14:34;;;;;;;24.00;9.73;;;8.50;99.90;;;;;;4938372;28;90163;-46
2021/12/24 10:17:00;;;;;;;17.38;8.23;;;8.50;99.90;;;;;;4966901;28;89666;-39
2021/12/24 10:19:25;;;;;;;20.63;9.27;;;8.50;99.90;;;;;;4969850;28;87652;-34
2021/12/24 10:22:03;;;;;;;19.48;8.70;;;8.50;99.90;;;;;;4965213;28;87989;-36
2021/12/24 10:24:30;;;;;;;22.73;9.80;;;8.50;99.90;;;;;;4960478;28;90383;-44
2021/12/24 10:27:00;;;;;;;21.75;9.57;;;8.50;99.90;;;;;;4960367;28;90623;-40
2021/12/24 10:29:34;;;;;;;18.88;9.82;;;8.50;99.90;;;;;;4959992;28;88142;-40
2021/12/24 10:32:15;;;;;;;22.67;10.18;;;8.50;99.90;;;;;;4959661;28;87608;-41
2021/12/24 10:34:43;;;;;;;27.77;10.23;;;8.50;99.90;;;;;;4961160;28;89202;-40
2021/12/24 10:37:18;;;;;;;25.00;9.95;;;8.50;99.90;;;;;;4978114;28;90354;-37
2021/12/24 10:39:48;;;;;;;21.25;8.85;;;8.40;99.90;;;;;;4980100;28;89595;-37
2021/12/24 10:42:19;;;;;;;21.52;10.05;;;8.50;99.90;;;;;;4978946;28;89038;-40
2021/12/24 10:44:46;;;;;;;25.65;10.38;;;8.50;99.90;;;;;;4978252;28;90295;-35
2021/12/24 10:47:20;;;;;;;21.42;10.65;;;8.50;99.90;;;;;;4978836;28;89599;-37
2021/12/24 10:50:08;;;;;;;23.92;10.60;;;8.50;99.90;;;;;;4978076;28;88514;-37
2021/12/24 10:55:31;;;;;;;29.15;11.18;;;8.50;99.90;;;;;;4979170;28;90525;-44
2021/12/24 10:57:59;;;;;;;23.00;11.23;;;8.40;99.90;;;;;;4978571;28;89576;-42
2021/12/24 11:00:38;;;;;;;32.35;11.15;;;8.40;99.90;;;;;;4978537;28;88360;-42
2021/12/24 11:03:14;;;;;;;23.08;10.50;;;8.50;99.90;;;;;;4978509;28;89347;-42
2021/12/24 11:05:42;;;;;;;25.02;9.25;;;8.50;99.90;;;;;;4977998;28;90244;-44
2021/12/24 11:08:11;;;;;;;16.48;8.38;;;8.50;99.90;;;;;;4978602;28;90353;-41
2021/12/24 11:10:42;;;;;;;9.57;7.90;;;8.50;99.90;;;;;;4975373;28;88921;-41
2021/12/24 11:13:13;;;;;;;5.97;5.15;;;8.50;99.90;;;;;;4979358;28;88882;-36
2021/12/24 11:15:41;;;;;;;40.97;29.10;;;8.30;99.90;;;;;;4978232;28;90243;-38
2021/12/24 11:18:18;;;;;;;3.53;3.30;;;7.90;99.90;;;;;;4977796;28;89625;-37
2021/12/24 11:20:49;;;;;;;9.77;8.73;;;7.60;99.90;;;;;;4865456;28;90472;-43
2021/12/24 11:23:16;;;;;;;3.97;3.67;;;7.40;99.90;;;;;;4948628;28;91357;-44
2021/12/24 11:25:43;;;;;;;3.00;2.80;;;7.20;99.90;;;;;;4962747;28;89783;-36
2021/12/24 11:28:11;;;;;;;5.47;5.07;;;7.00;99.90;;;;;;4947210;28;92005;-42
2021/12/24 11:30:41;;;;;;;4.47;3.22;;;6.90;99.90;;;;;;4942420;28;87686;-39
2021/12/24 11:33:07;;;;;;;3.83;3.53;;;6.80;99.90;;;;;;4944062;28;88090;-42
2021/12/24 11:35:33;;;;;;;3.88;3.53;;;6.70;99.90;;;;;;4934215;28;90389;-40
2021/12/24 11:38:00;;;;;;;3.70;3.40;;;6.70;99.90;;;;;;4934261;28;89436;-44
2021/12/24 11:40:27;;;;;;;3.92;3.63;;;6.60;99.90;;;;;;4942861;28;87608;-36
2021/12/24 11:42:59;;;;;;;9.82;9.10;;;6.60;99.90;;;;;;4953008;28;89957;-47
2021/12/24 11:45:27;;;;;;;4.32;3.92;;;6.50;99.90;;;;;;4955915;28;90258;-44
2021/12/24 11:47:54;;;;;;;4.05;3.72;;;6.40;99.90;;;;;;4956010;28;89853;-40
2021/12/24 11:50:21;;;;;;;5.78;5.22;;;6.30;99.90;;;;;;4951368;28;88740;-39
2021/12/24 11:52:49;;;;;;;3.53;3.22;;;6.40;99.90;;;;;;4957375;28;88919;-35
2021/12/24 11:55:15;;;;;;;3.20;3.00;;;6.30;99.90;;;;;;4957206;28;90598;-33
2021/12/24 11:58:03;;;;;;;3.72;3.42;;;6.30;99.90;;;;;;4955886;28;89536;-40
2021/12/24 12:00:39;;;;;;;2.97;2.78;;;6.40;99.90;;;;;;4956507;28;89162;-44
2021/12/24 12:03:06;;;;;;;3.38;3.08;;;6.40;99.90;;;;;;4888179;28;88875;-44
2021/12/24 12:25:39;;;;;;;5.60;5.20;;;6.30;99.90;;;;;;5010529;22;87552;-43
2021/12/24 12:28:26;;;;;;;3.85;3.53;;;6.30;99.90;;;;;;4960569;28;87505;-40
2021/12/24 13:18:28;;;;;;;5.60;5.10;;;6.40;99.90;;;;;;5004030;22;88087;-43
2021/12/24 13:24:13;;;;;;;6.97;5.38;;;6.40;99.90;;;;;;4974170;28;89510;-43
2021/12/24 13:26:40;;;;;;;6.57;5.97;;;6.40;99.90;;;;;;4927634;28;89405;-46
2021/12/24 13:29:16;;;;;;;8.23;6.45;;;6.40;99.90;;;;;;4937671;28;89444;-41
2021/12/24 13:31:51;;;;;;;8.35;6.97;;;6.50;99.90;;;;;;4954343;28;88839;-40
2021/12/24 13:34:17;;;;;;;7.07;6.38;;;6.50;99.90;;;;;;4955026;28;88879;-43
2021/12/24 13:36:42;;;;;;;20.88;18.77;;;6.50;99.90;;;;;;4955326;28;88553;-43
2021/12/24 13:39:11;;;;;;;10.30;9.38;;;6.50;99.90;;;;;;4953830;28;89981;-45
2021/12/24 13:41:38;;;;;;;6.97;6.38;;;6.40;99.90;;;;;;4954299;28;90008;-45
2021/12/24 13:44:05;;;;;;;8.43;7.60;;;6.50;99.90;;;;;;4954258;28;89846;-41
2021/12/24 13:46:34;;;;;;;8.40;7.53;;;6.50;99.90;;;;;;4955108;28;88906;-40
2021/12/24 13:54:33;;;;;;;8.07;7.28;;;6.50;99.90;;;;;;4954957;28;90507;-42
2021/12/24 13:57:01;;;;;;;7.28;6.65;;;6.50;99.90;;;;;;4955733;28;88622;-45
2021/12/24 13:59:27;;;;;;;7.60;6.80;;;6.50;99.90;;;;;;4954551;28;88272;-46
2021/12/24 14:01:52;;;;;;;7.78;6.97;;;6.50;99.90;;;;;;4953644;28;90901;-39
2021/12/24 14:04:20;;;;;;;7.03;6.43;;;6.60;99.90;;;;;;4953817;28;90340;-41
2021/12/24 14:06:50;;;;;;;6.93;6.32;;;6.60;99.90;;;;;;4952809;28;88931;-43
2021/12/24 14:09:20;;;;;;;6.63;6.00;;;6.60;99.90;;;;;;4953844;28;87995;-41
2021/12/24 14:11:48;;;;;;;7.43;6.72;;;6.60;99.90;;;;;;4953897;28;90593;-45
2021/12/24 14:14:25;;;;;;;7.03;6.43;;;6.60;99.90;;;;;;4953429;28;89963;-45
2021/12/24 14:17:19;;;;;;;6.30;5.72;;;6.60;99.90;;;;;;4953608;28;89570;-47
2021/12/24 14:22:27;;;;;;;6.33;5.83;;;6.60;99.90;;;;;;4953472;28;90951;-45
2021/12/24 14:24:54;;;;;;;6.95;6.32;;;6.70;99.90;;;;;;4953963;28;90454;-43
2021/12/24 14:27:22;;;;;;;6.07;5.47;;;6.70;99.90;;;;;;4953678;28;88270;-40
2021/12/24 14:29:55;;;;;;;6.53;5.88;;;6.60;99.90;;;;;;4953821;28;88750;-42
2021/12/24 14:32:37;;;;;;;5.93;5.40;;;6.60;99.90;;;;;;4953900;28;92726;-42
2021/12/24 14:35:15;;;;;;;5.72;5.30;;;6.60;99.90;;;;;;4954788;28;89999;-45
2021/12/24 14:37:51;;;;;;;5.78;5.15;;;6.60;99.90;;;;;;4953610;28;87519;-42
2021/12/24 14:40:18;;;;;;;6.50;5.78;;;6.60;99.90;;;;;;4953674;28;89905;-44
2021/12/24 14:42:50;;;;;;;5.28;4.88;;;6.60;99.90;;;;;;4954306;28;90488;-44
2021/12/24 14:45:27;;;;;;;33.45;22.45;;;6.60;99.90;;;;;;4935048;28;88745;-46
2021/12/24 14:47:58;;;;;;;13.00;8.23;;;6.60;99.90;;;;;;4952383;28;90282;-40
2021/12/24 14:50:24;;;;;;;5.82;5.00;;;6.60;99.90;;;;;;4952803;28;88350;-42
2021/12/24 14:53:22;;;;;;;7.43;5.30;;;6.60;99.90;;;;;;4953476;28;90726;-43
2021/12/24 14:55:53;;;;;;;4.83;4.43;;;6.50;99.90;;;;;;4953843;28;89861;-43
2021/12/24 14:58:44;;;;;;;4.93;4.50;;;6.50;99.90;;;;;;4953284;28;88503;-41
2021/12/24 15:01:09;;;;;;;4.45;4.05;;;6.50;99.90;;;;;;4945399;28;89478;-44
2021/12/24 15:03:37;;;;;;;5.05;4.65;;;6.50;99.90;;;;;;4953400;28;91007;-45
2021/12/24 15:06:14;;;;;;;4.57;4.18;;;6.50;99.90;;;;;;4954161;28;90436;-41
2021/12/24 15:08:39;;;;;;;4.03;3.80;;;6.40;99.90;;;;;;4954200;28;89421;-41
2021/12/24 15:11:09;;;;;;;4.75;4.35;;;6.30;99.90;;;;;;4953971;28;89419;-44
2021/12/24 15:13:50;;;;;;;4.38;3.97;;;6.30;99.90;;;;;;4953237;28;87867;-45
2021/12/24 15:16:16;;;;;;;4.82;4.43;;;6.30;99.90;;;;;;4951146;28;89653;-47
2021/12/24 15:18:48;;;;;;;5.05;4.55;;;6.20;99.90;;;;;;4934851;28;89212;-43
2021/12/24 15:21:14;;;;;;;4.50;4.18;;;6.20;99.90;;;;;;4953868;28;87687;-44
2021/12/24 15:23:39;;;;;;;4.43;4.03;;;6.20;99.90;;;;;;4955027;28;89329;-44
2021/12/24 15:26:05;;;;;;;5.35;4.95;;;6.10;99.90;;;;;;4954647;28;89273;-43
2021/12/24 15:28:31;;;;;;;6.00;4.55;;;6.10;99.90;;;;;;4954616;28;88921;-43
2021/12/24 15:30:59;;;;;;;6.10;5.60;;;6.10;99.90;;;;;;4955083;28;88822;-45
2021/12/24 15:33:24;;;;;;;8.13;4.90;;;6.10;99.90;;;;;;4954479;28;90354;-42